createdAt,value
2019-03-30T00:00:33.329Z,24.20
2019-03-30T00:03:06.041Z,24.00
2019-03-30T00:05:38.897Z,24.10
2019-03-30T00:08:14.521Z,24.00
2019-03-30T00:10:49.261Z,24.00
2019-03-30T00:13:21.815Z,24.00
2019-03-30T00:15:54.618Z,23.80
2019-03-30T00:18:27.191Z,24.00
2019-03-30T00:21:00.083Z,23.80
2019-03-30T00:23:32.735Z,23.80
2019-03-30T00:26:07.234Z,23.60
2019-03-30T00:28:39.781Z,23.80
2019-03-30T00:31:12.404Z,23.80
2019-03-30T00:33:47.392Z,23.90
2019-03-30T00:36:20.144Z,23.70
2019-03-30T00:38:52.715Z,23.60
2019-03-30T00:41:25.627Z,23.60
2019-03-30T00:43:58.334Z,23.40
2019-03-30T00:46:33.517Z,23.40
2019-03-30T00:49:07.513Z,23.50
2019-03-30T00:51:40.545Z,23.60
2019-03-30T00:54:13.170Z,23.60
2019-03-30T00:56:46.015Z,23.50
2019-03-30T00:59:19.709Z,23.30
2019-03-30T01:01:52.593Z,23.30
2019-03-30T01:04:25.245Z,23.40
2019-03-30T01:06:59.459Z,23.30
2019-03-30T01:09:35.021Z,23.20
2019-03-30T01:12:12.833Z,23.20
2019-03-30T01:14:45.436Z,23.20
2019-03-30T01:17:18.303Z,23.20
2019-03-30T01:20:02.283Z,23.10
2019-03-30T01:22:25.614Z,23.00
2019-03-30T01:24:58.248Z,23.00
2019-03-30T01:27:30.900Z,23.10
2019-03-30T01:30:03.461Z,23.10
2019-03-30T01:32:37.457Z,23.00
2019-03-30T01:35:10.579Z,23.10
2019-03-30T01:37:43.452Z,23.10
2019-03-30T01:40:15.981Z,23.10
2019-03-30T01:42:51.866Z,23.20
2019-03-30T01:45:24.431Z,23.40
2019-03-30T01:47:57.239Z,23.30
2019-03-30T01:50:29.807Z,23.40
2019-03-30T01:53:02.693Z,23.70
2019-03-30T01:55:35.257Z,23.10
2019-03-30T01:58:09.285Z,23.00
2019-03-30T02:00:41.840Z,23.00
2019-03-30T02:03:14.847Z,23.00
2019-03-30T02:05:47.603Z,23.00
2019-03-30T02:08:21.668Z,22.80
2019-03-30T02:10:54.248Z,23.00
2019-03-30T02:13:27.104Z,23.00
2019-03-30T02:16:00.163Z,23.00
2019-03-30T02:18:33.181Z,23.00
2019-03-30T02:21:05.721Z,23.50
2019-03-30T02:23:39.045Z,23.10
2019-03-30T02:26:11.678Z,23.10
2019-03-30T02:28:44.413Z,23.00
2019-03-30T02:31:17.036Z,23.00
2019-03-30T02:33:49.793Z,23.00
2019-03-30T02:36:22.719Z,23.00
2019-03-30T02:38:55.850Z,23.00
2019-03-30T02:41:28.422Z,23.20
2019-03-30T02:44:01.313Z,23.10
2019-03-30T02:46:33.981Z,23.30
2019-03-30T02:49:06.889Z,23.10
2019-03-30T02:51:39.560Z,23.30
2019-03-30T02:54:13.921Z,23.40
2019-03-30T02:56:46.484Z,23.20
2019-03-30T02:59:19.351Z,23.10
2019-03-30T03:01:51.944Z,23.10
2019-03-30T03:04:26.337Z,23.20
2019-03-30T03:07:01.909Z,23.10
2019-03-30T03:09:35.090Z,23.00
2019-03-30T03:12:09.002Z,22.90
2019-03-30T03:14:41.615Z,23.00
2019-03-30T03:17:14.223Z,22.90
2019-03-30T03:19:46.835Z,23.10
2019-03-30T03:22:19.503Z,23.00
2019-03-30T03:24:53.014Z,23.00
2019-03-30T03:27:25.600Z,23.00
2019-03-30T03:29:58.377Z,23.00
2019-03-30T03:32:31.013Z,23.00
2019-03-30T03:35:03.701Z,23.10
2019-03-30T03:37:44.654Z,23.60
2019-03-30T03:40:17.511Z,23.10
2019-03-30T03:42:50.102Z,22.90
2019-03-30T03:45:23.007Z,23.00
2019-03-30T03:47:55.631Z,23.10
2019-03-30T03:50:50.165Z,23.00
2019-03-30T03:53:22.699Z,23.20
2019-03-30T03:56:02.565Z,23.20
2019-03-30T03:58:37.622Z,23.00
2019-03-30T04:01:10.888Z,23.00
2019-03-30T04:03:46.568Z,23.10
2019-03-30T04:06:25.447Z,23.00
2019-03-30T04:09:02.618Z,23.00
2019-03-30T04:11:36.083Z,23.10
2019-03-30T04:14:12.054Z,23.20
2019-03-30T04:16:44.751Z,22.90
2019-03-30T04:19:17.325Z,23.00
2019-03-30T04:21:50.276Z,23.10
2019-03-30T04:24:24.177Z,23.60
2019-03-30T04:26:59.405Z,22.90
2019-03-30T04:29:31.984Z,23.00
2019-03-30T04:34:34.597Z,23.00
2019-03-30T04:37:07.421Z,22.90
2019-03-30T04:39:40.055Z,22.80
2019-03-30T04:42:14.837Z,22.80
2019-03-30T04:44:47.668Z,22.70
2019-03-30T04:47:20.298Z,22.80
2019-03-30T04:49:52.981Z,22.60
2019-03-30T04:52:28.655Z,22.90
2019-03-30T04:55:01.555Z,23.00
2019-03-30T04:57:34.370Z,23.10
2019-03-30T05:00:08.153Z,23.20
2019-03-30T05:02:40.745Z,23.10
2019-03-30T05:05:15.544Z,23.00
2019-03-30T05:07:50.012Z,22.70
2019-03-30T05:10:24.406Z,22.60
2019-03-30T05:12:57.304Z,22.70
2019-03-30T05:15:30.135Z,23.00
2019-03-30T05:18:02.819Z,22.50
2019-03-30T05:20:35.839Z,22.30
2019-03-30T05:23:08.420Z,22.40
2019-03-30T05:25:41.086Z,22.40
2019-03-30T05:28:14.120Z,22.60
2019-03-30T05:30:49.694Z,22.60
2019-03-30T05:33:22.282Z,22.50
2019-03-30T05:35:55.219Z,22.50
2019-03-30T05:38:27.831Z,22.60
2019-03-30T05:41:00.591Z,22.30
2019-03-30T05:43:38.034Z,22.30
2019-03-30T05:46:11.248Z,22.40
2019-03-30T05:48:43.825Z,22.40
2019-03-30T05:51:16.607Z,22.70
2019-03-30T05:53:49.231Z,22.60
2019-03-30T05:56:22.099Z,22.60
2019-03-30T05:58:54.879Z,22.90
2019-03-30T06:01:27.732Z,22.40
2019-03-30T06:04:02.649Z,22.20
2019-03-30T06:06:36.648Z,22.30
2019-03-30T06:09:09.828Z,22.50
2019-03-30T06:11:42.470Z,22.40
2019-03-30T06:14:18.156Z,22.70
2019-03-30T06:16:50.770Z,22.80
2019-03-30T06:19:23.385Z,22.90
2019-03-30T06:21:55.995Z,22.70
2019-03-30T06:24:30.943Z,22.70
2019-03-30T06:27:03.763Z,22.50
2019-03-30T06:29:36.446Z,22.70
2019-03-30T06:32:09.115Z,22.50
2019-03-30T06:34:41.753Z,22.50
2019-03-30T06:37:17.615Z,22.80
2019-03-30T06:39:50.200Z,22.40
2019-03-30T06:42:23.106Z,22.50
2019-03-30T06:44:56.038Z,22.30
2019-03-30T06:47:28.767Z,22.40
2019-03-30T06:50:01.411Z,22.40
2019-03-30T06:52:34.065Z,22.50
2019-03-30T06:55:08.458Z,22.00
2019-03-30T06:57:41.135Z,21.90
2019-03-30T07:00:15.711Z,21.90
2019-03-30T07:02:49.561Z,22.30
2019-03-30T07:05:23.242Z,22.30
2019-03-30T07:07:56.010Z,22.30
2019-03-30T07:10:28.647Z,22.20
2019-03-30T07:13:03.996Z,22.10
2019-03-30T07:15:44.246Z,22.00
2019-03-30T07:18:17.651Z,22.10
2019-03-30T07:20:52.389Z,22.00
2019-03-30T07:23:26.069Z,22.10
2019-03-30T07:25:58.740Z,22.30
2019-03-30T07:28:31.647Z,22.20
2019-03-30T07:31:04.253Z,22.10
2019-03-30T07:33:39.959Z,21.90
2019-03-30T07:36:12.571Z,21.90
2019-03-30T07:38:45.318Z,21.80
2019-03-30T07:41:18.048Z,21.90
2019-03-30T07:43:54.081Z,21.70
2019-03-30T07:46:26.953Z,21.80
2019-03-30T07:48:59.846Z,21.80
2019-03-30T07:51:33.769Z,22.30
2019-03-30T07:54:06.669Z,21.70
2019-03-30T07:56:43.791Z,21.80
2019-03-30T07:59:16.547Z,21.90
2019-03-30T08:01:49.365Z,21.90
2019-03-30T08:04:21.953Z,21.80
2019-03-30T08:06:57.175Z,21.90
2019-03-30T08:09:29.994Z,22.00
2019-03-30T08:12:02.806Z,22.00
2019-03-30T08:14:37.802Z,21.90
2019-03-30T08:17:10.818Z,22.20
2019-03-30T08:19:43.596Z,22.40
2019-03-30T08:22:16.199Z,22.30
2019-03-30T08:24:49.050Z,22.10
2019-03-30T08:27:21.690Z,22.10
2019-03-30T08:29:54.607Z,21.90
2019-03-30T08:32:27.411Z,22.20
2019-03-30T08:35:00.426Z,22.70
2019-03-30T08:37:33.097Z,22.20
2019-03-30T08:40:07.500Z,21.90
2019-03-30T08:42:40.375Z,21.90
2019-03-30T08:45:16.260Z,21.90
2019-03-30T08:47:49.153Z,22.00
2019-03-30T08:50:22.046Z,21.90
2019-03-30T08:52:54.721Z,22.40
2019-03-30T08:55:27.668Z,23.30
2019-03-30T08:58:00.301Z,23.00
2019-03-30T09:00:44.170Z,23.40
2019-03-30T09:03:16.783Z,23.80
2019-03-30T09:05:49.752Z,23.30
2019-03-30T09:08:22.503Z,23.80
2019-03-30T09:10:55.415Z,24.70
2019-03-30T09:13:28.044Z,24.60
2019-03-30T09:16:01.095Z,24.90
2019-03-30T09:18:34.085Z,24.20
2019-03-30T09:21:07.054Z,23.90
2019-03-30T09:23:39.743Z,23.60
2019-03-30T09:26:12.649Z,23.70
2019-03-30T09:28:45.359Z,24.10
2019-03-30T09:31:18.431Z,24.30
2019-03-30T09:33:51.222Z,23.80
2019-03-30T09:36:23.921Z,23.90
2019-03-30T09:38:56.530Z,23.90
2019-03-30T09:41:29.523Z,23.20
2019-03-30T09:44:02.121Z,23.70
2019-03-30T09:46:34.947Z,23.70
2019-03-30T09:49:07.592Z,24.10
2019-03-30T09:51:40.456Z,24.10
2019-03-30T09:54:23.574Z,24.30
2019-03-30T09:56:47.470Z,24.70
2019-03-30T09:59:20.217Z,24.10
2019-03-30T10:01:52.883Z,24.10
2019-03-30T10:04:25.641Z,24.90
2019-03-30T10:06:58.407Z,25.70
2019-03-30T10:09:31.118Z,24.90
2019-03-30T10:12:04.135Z,24.00
2019-03-30T10:14:36.799Z,24.60
2019-03-30T10:17:09.731Z,24.50
2019-03-30T10:19:42.409Z,23.60
2019-03-30T10:22:15.373Z,23.60
2019-03-30T10:24:48.054Z,23.30
2019-03-30T10:27:20.921Z,23.20
2019-03-30T10:29:53.512Z,22.60
2019-03-30T10:32:26.536Z,21.80
2019-03-30T10:34:59.673Z,21.90
2019-03-30T10:37:32.504Z,22.10
2019-03-30T10:40:05.518Z,22.50
2019-03-30T10:42:38.375Z,22.70
2019-03-30T10:45:11.378Z,23.10
2019-03-30T10:47:44.093Z,23.40
2019-03-30T10:50:17.207Z,22.60
2019-03-30T10:52:50.209Z,22.50
2019-03-30T10:55:22.866Z,23.10
2019-03-30T10:57:58.464Z,22.80
2019-03-30T11:00:43.382Z,22.70
2019-03-30T11:03:16.368Z,22.80
2019-03-30T11:05:49.327Z,22.70
2019-03-30T11:08:22.072Z,22.90
2019-03-30T11:10:54.821Z,22.00
2019-03-30T11:13:27.726Z,21.80
2019-03-30T11:16:00.774Z,22.50
2019-03-30T11:18:33.619Z,22.80
2019-03-30T11:21:06.693Z,24.00
2019-03-30T11:23:39.678Z,23.70
2019-03-30T11:26:12.884Z,24.10
2019-03-30T11:28:45.579Z,24.40
2019-03-30T11:31:18.253Z,23.50
2019-03-30T11:33:51.237Z,22.60
2019-03-30T11:36:24.240Z,21.90
2019-03-30T11:38:57.128Z,21.90
2019-03-30T11:41:29.921Z,21.40
2019-03-30T11:44:02.595Z,20.90
2019-03-30T11:46:35.356Z,21.00
2019-03-30T11:49:08.140Z,21.20
2019-03-30T11:51:41.228Z,21.40
2019-03-30T11:54:14.115Z,21.70
2019-03-30T11:56:46.851Z,22.50
2019-03-30T11:59:20.006Z,21.90
2019-03-30T12:01:52.776Z,21.40
2019-03-30T12:04:25.654Z,20.70
2019-03-30T12:06:58.304Z,21.00
2019-03-30T12:09:31.119Z,21.20
2019-03-30T12:12:03.804Z,21.50
2019-03-30T12:14:38.007Z,20.90
2019-03-30T12:17:10.625Z,20.60
2019-03-30T12:19:44.816Z,20.50
2019-03-30T12:22:17.449Z,20.70
2019-03-30T12:24:50.495Z,20.20
2019-03-30T12:27:23.128Z,20.10
2019-03-30T12:29:56.049Z,19.50
2019-03-30T12:32:28.671Z,20.50
2019-03-30T12:35:01.617Z,19.80
2019-03-30T12:37:34.543Z,19.10
2019-03-30T12:40:07.762Z,18.60
2019-03-30T12:42:40.742Z,18.50
2019-03-30T12:45:15.531Z,18.30
2019-03-30T12:47:48.705Z,18.50
2019-03-30T12:50:22.582Z,18.00
2019-03-30T12:52:55.727Z,18.70
2019-03-30T12:55:28.598Z,18.30
2019-03-30T12:58:01.210Z,18.10
2019-03-30T13:00:34.586Z,17.80
2019-03-30T13:03:07.318Z,17.80
2019-03-30T13:05:40.537Z,18.20
2019-03-30T13:08:13.799Z,18.30
2019-03-30T13:10:46.948Z,17.80
2019-03-30T13:13:19.908Z,17.70
2019-03-30T13:15:52.769Z,17.10
2019-03-30T13:18:25.377Z,16.60
2019-03-30T13:20:58.155Z,15.60
2019-03-30T13:23:31.110Z,15.80
2019-03-30T13:26:04.381Z,16.00
2019-03-30T13:28:37.183Z,15.70
2019-03-30T13:31:10.092Z,15.30
2019-03-30T13:33:42.706Z,14.70
2019-03-30T13:36:15.783Z,14.70
2019-03-30T13:38:48.793Z,14.10
2019-03-30T13:41:21.508Z,14.40
2019-03-30T13:43:54.260Z,14.00
2019-03-30T13:46:27.015Z,14.10
2019-03-30T13:48:59.623Z,14.10
2019-03-30T13:51:32.267Z,13.50
2019-03-30T13:54:05.219Z,13.30
2019-03-30T13:56:37.988Z,13.30
2019-03-30T13:59:10.626Z,13.80
2019-03-30T14:01:43.343Z,13.60
2019-03-30T14:04:15.929Z,13.60
2019-03-30T14:06:49.717Z,13.80
2019-03-30T14:09:23.805Z,13.90
2019-03-30T14:11:57.139Z,13.20
2019-03-30T14:14:29.872Z,13.10
2019-03-30T14:17:02.848Z,12.70
2019-03-30T14:19:35.515Z,13.20
2019-03-30T14:22:08.414Z,12.70
2019-03-30T14:24:41.010Z,13.20
2019-03-30T14:27:14.116Z,12.90
2019-03-30T14:29:46.784Z,13.00
2019-03-30T14:32:19.746Z,13.20
2019-03-30T14:34:52.338Z,13.20
2019-03-30T14:37:25.031Z,13.00
2019-03-30T14:39:58.004Z,13.20
2019-03-30T14:42:30.984Z,13.30
2019-03-30T14:45:03.619Z,12.80
2019-03-30T14:47:36.342Z,12.80
2019-03-30T14:50:10.189Z,13.20
2019-03-30T14:52:43.952Z,13.30
2019-03-30T14:55:16.702Z,13.50
2019-03-30T14:57:49.423Z,13.80
2019-03-30T15:00:22.381Z,14.10
2019-03-30T15:02:55.682Z,13.80
2019-03-30T15:05:28.361Z,13.90
2019-03-30T15:08:01.178Z,14.30
2019-03-30T15:10:34.286Z,15.10
2019-03-30T15:13:07.134Z,15.30
2019-03-30T15:15:39.784Z,15.50
2019-03-30T15:18:12.737Z,15.60
2019-03-30T15:20:45.410Z,16.10
2019-03-30T15:23:18.183Z,16.30
2019-03-30T15:25:52.260Z,16.50
2019-03-30T15:28:25.163Z,16.10
2019-03-30T15:30:57.795Z,16.90
2019-03-30T15:33:30.440Z,16.60
2019-03-30T15:36:03.118Z,17.10
2019-03-30T15:38:36.122Z,16.80
2019-03-30T15:41:09.248Z,16.80
2019-03-30T15:43:42.198Z,17.00
2019-03-30T15:46:14.829Z,17.00
2019-03-30T15:48:47.641Z,17.50
2019-03-30T15:51:20.435Z,17.10
2019-03-30T15:53:53.435Z,17.10
2019-03-30T15:56:26.573Z,17.60
2019-03-30T15:58:59.602Z,17.70
2019-03-30T16:01:32.226Z,18.20
2019-03-30T16:04:05.167Z,18.40
2019-03-30T16:06:37.807Z,18.80
2019-03-30T16:09:10.729Z,19.00
2019-03-30T16:11:43.468Z,18.70
2019-03-30T16:14:16.313Z,19.00
2019-03-30T16:16:49.003Z,19.30
2019-03-30T16:19:21.674Z,19.20
2019-03-30T16:21:54.338Z,18.80
2019-03-30T16:24:30.045Z,18.80
2019-03-30T16:27:02.127Z,18.60
2019-03-30T16:29:34.879Z,18.50
2019-03-30T16:32:07.518Z,18.40
2019-03-30T16:34:40.388Z,17.90
2019-03-30T16:37:13.062Z,17.90
2019-03-30T16:39:46.073Z,17.90
2019-03-30T16:42:19.078Z,18.20
2019-03-30T16:44:52.049Z,17.80
2019-03-30T16:47:24.682Z,18.00
2019-03-30T16:49:57.707Z,18.50
2019-03-30T16:52:30.345Z,18.60
2019-03-30T16:55:03.205Z,18.60
2019-03-30T16:57:42.992Z,18.30
2019-03-30T17:00:12.327Z,18.50
2019-03-30T17:02:45.108Z,18.60
2019-03-30T17:05:17.987Z,18.90
2019-03-30T17:07:50.827Z,19.00
2019-03-30T17:10:23.633Z,19.00
2019-03-30T17:12:56.340Z,19.00
2019-03-30T17:15:29.152Z,18.90
2019-03-30T17:18:01.749Z,19.10
2019-03-30T17:20:34.701Z,19.10
2019-03-30T17:23:07.316Z,19.30
2019-03-30T17:25:40.268Z,19.70
2019-03-30T17:28:12.946Z,19.50
2019-03-30T17:30:46.025Z,19.40
2019-03-30T17:33:18.758Z,19.50
2019-03-30T17:35:51.564Z,19.50
2019-03-30T17:38:24.383Z,19.80
2019-03-30T17:40:57.243Z,20.30
2019-03-30T17:43:30.502Z,19.90
2019-03-30T17:46:03.267Z,20.00
2019-03-30T17:48:36.044Z,19.80
2019-03-30T17:51:09.232Z,20.00
2019-03-30T17:53:41.986Z,19.90
2019-03-30T17:56:14.898Z,19.90
2019-03-30T17:58:47.749Z,19.90
2019-03-30T18:01:20.494Z,19.90
2019-03-30T18:03:54.414Z,20.00
2019-03-30T18:06:27.069Z,20.20
2019-03-30T18:08:59.688Z,20.20
2019-03-30T18:11:32.476Z,20.10
2019-03-30T18:14:05.478Z,20.20
2019-03-30T18:16:38.317Z,20.20
2019-03-30T18:19:11.144Z,20.20
2019-03-30T18:21:44.037Z,20.20
2019-03-30T18:24:16.867Z,20.30
2019-03-30T18:26:49.829Z,20.30
2019-03-30T18:29:22.970Z,20.20
2019-03-30T18:31:56.002Z,20.10
2019-03-30T18:34:29.952Z,20.20
2019-03-30T18:37:03.854Z,20.30
2019-03-30T18:39:37.015Z,20.30
2019-03-30T18:42:10.015Z,20.00
2019-03-30T18:44:44.173Z,20.40
2019-03-30T18:47:17.226Z,20.40
2019-03-30T18:49:49.845Z,20.30
2019-03-30T18:52:23.070Z,20.30
2019-03-30T18:54:56.938Z,20.60
2019-03-30T18:57:29.967Z,20.40
2019-03-30T19:00:02.971Z,20.50
2019-03-30T19:02:36.053Z,20.40
2019-03-30T19:05:09.169Z,20.50
2019-03-30T19:07:42.226Z,20.50
2019-03-30T19:10:14.958Z,20.50
2019-03-30T19:12:47.792Z,20.50
2019-03-30T19:15:20.658Z,20.50
2019-03-30T19:17:53.400Z,20.50
2019-03-30T19:20:26.110Z,20.50
2019-03-30T19:22:58.771Z,20.60
2019-03-30T19:25:31.444Z,20.60
2019-03-30T19:28:04.083Z,20.60
2019-03-30T19:30:36.944Z,20.60
2019-03-30T19:33:09.786Z,20.50
2019-03-30T19:35:42.470Z,20.50
2019-03-30T19:38:15.222Z,20.60
2019-03-30T19:40:47.861Z,20.60
2019-03-30T19:43:20.860Z,20.60
2019-03-30T19:45:53.686Z,20.80
2019-03-30T19:48:26.495Z,20.70
2019-03-30T19:50:59.298Z,20.80
2019-03-30T19:53:32.312Z,21.40
2019-03-30T19:56:05.870Z,20.90
2019-03-30T19:58:38.949Z,20.90
2019-03-30T20:01:12.153Z,20.30
2019-03-30T20:03:44.982Z,20.80
2019-03-30T20:06:17.650Z,20.70
2019-03-30T20:08:50.446Z,20.60
2019-03-30T20:11:23.260Z,20.70
2019-03-30T20:13:55.943Z,20.70
2019-03-30T20:16:28.622Z,20.70
2019-03-30T20:19:12.098Z,20.70
2019-03-30T20:21:36.045Z,20.70
2019-03-30T20:24:09.650Z,20.70
2019-03-30T20:26:42.785Z,20.70
2019-03-30T20:29:25.233Z,20.50
2019-03-30T20:31:52.379Z,20.60
2019-03-30T20:34:25.702Z,20.50
2019-03-30T20:36:58.465Z,20.60
2019-03-30T20:39:31.338Z,20.60
2019-03-30T20:42:04.008Z,20.50
2019-03-30T20:44:37.091Z,20.60
2019-03-30T20:47:10.246Z,20.60
2019-03-30T20:49:43.113Z,20.60
2019-03-30T20:52:16.245Z,20.60
2019-03-30T20:54:49.199Z,20.50
2019-03-30T20:57:21.937Z,20.50
2019-03-30T20:59:54.781Z,20.60
2019-03-30T21:02:27.785Z,20.40
2019-03-30T21:05:00.415Z,20.40
2019-03-30T21:07:33.293Z,20.50
2019-03-30T21:10:07.751Z,20.50
2019-03-30T21:12:41.699Z,20.50
2019-03-30T21:15:15.649Z,20.60
2019-03-30T21:17:48.697Z,20.70
2019-03-30T21:20:21.584Z,20.70
2019-03-30T21:22:54.297Z,20.60
2019-03-30T21:25:27.201Z,20.60
2019-03-30T21:27:59.864Z,20.70
2019-03-30T21:30:32.915Z,20.50
2019-03-30T21:33:05.674Z,20.50
2019-03-30T21:35:38.455Z,21.00
2019-03-30T21:38:11.224Z,20.70
2019-03-30T21:40:43.926Z,21.10
2019-03-30T21:43:19.538Z,20.50
2019-03-30T21:45:51.069Z,20.60
2019-03-30T21:48:24.353Z,20.60
2019-03-30T21:50:57.034Z,20.40
2019-03-30T21:53:29.855Z,20.50
2019-03-30T21:56:02.719Z,20.50
2019-03-30T21:58:35.385Z,20.60
2019-03-30T22:01:08.339Z,20.50
2019-03-30T22:03:41.978Z,20.50
2019-03-30T22:06:14.953Z,20.50
2019-03-30T22:08:49.353Z,20.40
2019-03-30T22:11:22.342Z,20.40
2019-03-30T22:13:55.035Z,20.40
2019-03-30T22:16:28.010Z,20.40
2019-03-30T22:19:01.025Z,20.40
2019-03-30T22:21:33.993Z,20.50
2019-03-30T22:24:06.598Z,20.40
2019-03-30T22:26:39.755Z,20.50
2019-03-30T22:29:15.427Z,20.50
2019-03-30T22:31:48.298Z,20.30
2019-03-30T22:34:23.308Z,20.40
2019-03-30T22:36:56.215Z,20.40
2019-03-30T22:39:28.968Z,20.50
2019-03-30T22:42:01.914Z,20.40
2019-03-30T22:44:34.455Z,20.40
2019-03-30T22:47:07.293Z,20.40
2019-03-30T22:49:39.910Z,20.40
2019-03-30T22:52:12.824Z,20.40
2019-03-30T22:54:46.494Z,20.40
2019-03-30T22:57:19.214Z,20.30
2019-03-30T22:59:51.826Z,20.50
2019-03-30T23:02:24.515Z,20.50
2019-03-30T23:04:57.134Z,20.50
2019-03-30T23:07:32.142Z,20.50
2019-03-30T23:10:05.584Z,20.30
2019-03-30T23:12:38.272Z,20.40
2019-03-30T23:15:10.994Z,20.40
2019-03-30T23:17:43.639Z,20.40
2019-03-30T23:20:16.783Z,20.30
2019-03-30T23:22:50.840Z,20.40
2019-03-30T23:25:23.468Z,20.40
2019-03-30T23:27:59.768Z,20.50
2019-03-30T23:30:32.417Z,20.40
2019-03-30T23:33:05.318Z,20.60
2019-03-30T23:35:38.070Z,20.50
2019-03-30T23:38:10.983Z,20.60
2019-03-30T23:40:43.567Z,20.40
2019-03-30T23:43:16.349Z,20.30
2019-03-30T23:45:48.942Z,20.40
2019-03-30T23:48:24.827Z,20.40
2019-03-30T23:50:57.959Z,20.30
2019-03-30T23:53:30.652Z,20.30
2019-03-30T23:56:03.444Z,20.40
2019-03-30T23:58:36.092Z,20.30
